sensor_id;sensor_type;location;lat;lon;timestamp;P1;durP1;ratioP1;P2;durP2;ratioP2
31660;SDS011;18267;52.234;7.444;2022-08-16T00:00:30;7.78;;;5.97;;
31660;SDS011;18267;52.234;7.444;2022-08-16T00:03:00;8.45;;;6.40;;
31660;SDS011;18267;52.234;7.444;2022-08-16T00:05:27;6.88;;;6.18;;
31660;SDS011;18267;52.234;7.444;2022-08-16T00:07:53;10.27;;;6.60;;
31660;SDS011;18267;52.234;7.444;2022-08-16T00:10:19;8.77;;;6.93;;
31660;SDS011;18267;52.234;7.444;2022-08-16T00:12:46;6.80;;;5.95;;
31660;SDS011;18267;52.234;7.444;2022-08-16T00:15:14;8.95;;;6.53;;
31660;SDS011;18267;52.234;7.444;2022-08-16T00:17:48;10.85;;;6.18;;
31660;SDS011;18267;52.234;7.444;2022-08-16T00:20:14;6.60;;;5.93;;
31660;SDS011;18267;52.234;7.444;2022-08-16T00:22:40;11.23;;;6.00;;
31660;SDS011;18267;52.234;7.444;2022-08-16T00:25:08;8.55;;;6.60;;
31660;SDS011;18267;52.234;7.444;2022-08-16T00:27:36;10.32;;;6.25;;
31660;SDS011;18267;52.234;7.444;2022-08-16T00:30:02;12.48;;;6.30;;
31660;SDS011;18267;52.234;7.444;2022-08-16T00:32:29;6.68;;;6.00;;
31660;SDS011;18267;52.234;7.444;2022-08-16T00:34:55;16.05;;;6.82;;
31660;SDS011;18267;52.234;7.444;2022-08-16T00:37:22;6.88;;;6.13;;
31660;SDS011;18267;52.234;7.444;2022-08-16T00:39:49;10.77;;;7.45;;
31660;SDS011;18267;52.234;7.444;2022-08-16T00:42:14;9.00;;;7.45;;
31660;SDS011;18267;52.234;7.444;2022-08-16T00:44:50;10.07;;;6.70;;
31660;SDS011;18267;52.234;7.444;2022-08-16T00:47:19;12.45;;;5.78;;
31660;SDS011;18267;52.234;7.444;2022-08-16T00:49:48;11.75;;;6.10;;
31660;SDS011;18267;52.234;7.444;2022-08-16T00:52:13;6.93;;;6.22;;
31660;SDS011;18267;52.234;7.444;2022-08-16T00:54:39;10.00;;;7.15;;
31660;SDS011;18267;52.234;7.444;2022-08-16T00:57:05;9.55;;;6.55;;
31660;SDS011;18267;52.234;7.444;2022-08-16T00:59:32;9.48;;;6.63;;
31660;SDS011;18267;52.234;7.444;2022-08-16T01:02:03;11.63;;;8.40;;
31660;SDS011;18267;52.234;7.444;2022-08-16T01:04:31;14.98;;;7.15;;
31660;SDS011;18267;52.234;7.444;2022-08-16T01:06:58;10.88;;;7.90;;
31660;SDS011;18267;52.234;7.444;2022-08-16T01:09:29;9.50;;;7.68;;
31660;SDS011;18267;52.234;7.444;2022-08-16T01:11:57;13.15;;;7.95;;
31660;SDS011;18267;52.234;7.444;2022-08-16T01:14:28;11.65;;;8.30;;
31660;SDS011;18267;52.234;7.444;2022-08-16T01:16:58;9.80;;;7.70;;
31660;SDS011;18267;52.234;7.444;2022-08-16T01:19:26;10.55;;;7.20;;
31660;SDS011;18267;52.234;7.444;2022-08-16T01:21:58;10.75;;;7.93;;
31660;SDS011;18267;52.234;7.444;2022-08-16T01:27:12;9.80;;;7.63;;
31660;SDS011;18267;52.234;7.444;2022-08-16T01:29:46;10.23;;;7.63;;
31660;SDS011;18267;52.234;7.444;2022-08-16T01:32:17;9.05;;;7.35;;
31660;SDS011;18267;52.234;7.444;2022-08-16T01:34:43;9.80;;;7.20;;
31660;SDS011;18267;52.234;7.444;2022-08-16T01:37:10;8.77;;;7.82;;
31660;SDS011;18267;52.234;7.444;2022-08-16T01:39:37;14.90;;;8.20;;
31660;SDS011;18267;52.234;7.444;2022-08-16T01:42:03;11.57;;;7.15;;
31660;SDS011;18267;52.234;7.444;2022-08-16T01:44:31;13.48;;;7.70;;
31660;SDS011;18267;52.234;7.444;2022-08-16T01:46:57;11.27;;;7.80;;
31660;SDS011;18267;52.234;7.444;2022-08-16T01:51:56;11.18;;;8.13;;
31660;SDS011;18267;52.234;7.444;2022-08-16T01:54:30;8.82;;;7.30;;
31660;SDS011;18267;52.234;7.444;2022-08-16T01:56:56;11.00;;;8.85;;
31660;SDS011;18267;52.234;7.444;2022-08-16T01:59:22;11.30;;;8.15;;
31660;SDS011;18267;52.234;7.444;2022-08-16T02:01:49;13.20;;;8.32;;
31660;SDS011;18267;52.234;7.444;2022-08-16T02:04:16;11.02;;;7.95;;
31660;SDS011;18267;52.234;7.444;2022-08-16T02:06:43;13.63;;;9.15;;
31660;SDS011;18267;52.234;7.444;2022-08-16T02:09:09;11.90;;;8.90;;
31660;SDS011;18267;52.234;7.444;2022-08-16T02:11:36;13.65;;;9.18;;
31660;SDS011;18267;52.234;7.444;2022-08-16T02:14:03;11.38;;;8.23;;
31660;SDS011;18267;52.234;7.444;2022-08-16T02:16:30;15.25;;;7.90;;
31660;SDS011;18267;52.234;7.444;2022-08-16T02:18:56;11.90;;;7.30;;
31660;SDS011;18267;52.234;7.444;2022-08-16T02:21:21;13.23;;;8.10;;
31660;SDS011;18267;52.234;7.444;2022-08-16T02:23:47;9.60;;;7.63;;
31660;SDS011;18267;52.234;7.444;2022-08-16T02:26:13;12.95;;;7.95;;
31660;SDS011;18267;52.234;7.444;2022-08-16T02:28:39;7.65;;;6.85;;
31660;SDS011;18267;52.234;7.444;2022-08-16T02:31:08;11.38;;;6.90;;
31660;SDS011;18267;52.234;7.444;2022-08-16T02:33:36;13.27;;;7.00;;
31660;SDS011;18267;52.234;7.444;2022-08-16T02:36:03;8.65;;;7.47;;
31660;SDS011;18267;52.234;7.444;2022-08-16T02:38:29;9.23;;;7.65;;
31660;SDS011;18267;52.234;7.444;2022-08-16T02:40:56;9.50;;;6.88;;
31660;SDS011;18267;52.234;7.444;2022-08-16T02:43:22;13.00;;;7.97;;
31660;SDS011;18267;52.234;7.444;2022-08-16T02:45:50;11.85;;;7.40;;
31660;SDS011;18267;52.234;7.444;2022-08-16T02:48:16;7.40;;;6.68;;
31660;SDS011;18267;52.234;7.444;2022-08-16T02:50:42;16.15;;;7.97;;
31660;SDS011;18267;52.234;7.444;2022-08-16T02:53:07;11.88;;;8.60;;
31660;SDS011;18267;52.234;7.444;2022-08-16T02:55:33;11.52;;;6.90;;
31660;SDS011;18267;52.234;7.444;2022-08-16T02:57:58;11.02;;;7.95;;
31660;SDS011;18267;52.234;7.444;2022-08-16T03:00:24;12.63;;;8.05;;
31660;SDS011;18267;52.234;7.444;2022-08-16T03:02:49;13.55;;;8.00;;
31660;SDS011;18267;52.234;7.444;2022-08-16T03:05:18;12.10;;;8.43;;
31660;SDS011;18267;52.234;7.444;2022-08-16T03:07:44;11.15;;;7.20;;
31660;SDS011;18267;52.234;7.444;2022-08-16T03:10:10;9.73;;;7.40;;
31660;SDS011;18267;52.234;7.444;2022-08-16T03:12:37;14.30;;;8.40;;
31660;SDS011;18267;52.234;7.444;2022-08-16T03:15:03;14.48;;;9.75;;
31660;SDS011;18267;52.234;7.444;2022-08-16T03:17:31;11.02;;;8.68;;
31660;SDS011;18267;52.234;7.444;2022-08-16T03:19:57;14.23;;;9.20;;
31660;SDS011;18267;52.234;7.444;2022-08-16T03:22:22;14.05;;;9.43;;
31660;SDS011;18267;52.234;7.444;2022-08-16T03:24:48;11.32;;;8.73;;
31660;SDS011;18267;52.234;7.444;2022-08-16T03:27:13;10.60;;;8.32;;
31660;SDS011;18267;52.234;7.444;2022-08-16T03:29:39;11.63;;;8.45;;
31660;SDS011;18267;52.234;7.444;2022-08-16T03:32:05;11.73;;;8.75;;
31660;SDS011;18267;52.234;7.444;2022-08-16T03:34:31;17.90;;;9.02;;
31660;SDS011;18267;52.234;7.444;2022-08-16T03:36:59;10.27;;;8.10;;
31660;SDS011;18267;52.234;7.444;2022-08-16T03:39:26;15.13;;;8.27;;
31660;SDS011;18267;52.234;7.444;2022-08-16T03:41:52;15.23;;;8.68;;
31660;SDS011;18267;52.234;7.444;2022-08-16T03:44:18;15.98;;;9.75;;
31660;SDS011;18267;52.234;7.444;2022-08-16T03:46:43;15.65;;;8.70;;
31660;SDS011;18267;52.234;7.444;2022-08-16T03:49:09;11.43;;;8.55;;
31660;SDS011;18267;52.234;7.444;2022-08-16T03:51:36;12.75;;;9.77;;
31660;SDS011;18267;52.234;7.444;2022-08-16T03:54:02;17.35;;;9.75;;
31660;SDS011;18267;52.234;7.444;2022-08-16T03:56:28;18.02;;;9.88;;
31660;SDS011;18267;52.234;7.444;2022-08-16T03:58:54;15.52;;;10.45;;
31660;SDS011;18267;52.234;7.444;2022-08-16T04:01:21;14.95;;;10.02;;
31660;SDS011;18267;52.234;7.444;2022-08-16T04:03:48;11.45;;;9.77;;
31660;SDS011;18267;52.234;7.444;2022-08-16T04:06:15;15.93;;;9.85;;
31660;SDS011;18267;52.234;7.444;2022-08-16T04:08:40;13.15;;;9.68;;
31660;SDS011;18267;52.234;7.444;2022-08-16T04:11:06;17.15;;;10.35;;
31660;SDS011;18267;52.234;7.444;2022-08-16T04:13:32;13.88;;;10.32;;
31660;SDS011;18267;52.234;7.444;2022-08-16T04:15:58;12.32;;;10.45;;
31660;SDS011;18267;52.234;7.444;2022-08-16T04:18:25;16.13;;;9.80;;
31660;SDS011;18267;52.234;7.444;2022-08-16T04:20:51;21.98;;;11.13;;
31660;SDS011;18267;52.234;7.444;2022-08-16T04:23:18;14.13;;;10.30;;
31660;SDS011;18267;52.234;7.444;2022-08-16T04:25:44;14.55;;;11.18;;
31660;SDS011;18267;52.234;7.444;2022-08-16T04:28:10;14.73;;;10.70;;
31660;SDS011;18267;52.234;7.444;2022-08-16T04:30:37;13.93;;;10.65;;
31660;SDS011;18267;52.234;7.444;2022-08-16T04:33:04;23.30;;;11.25;;
31660;SDS011;18267;52.234;7.444;2022-08-16T04:35:30;16.30;;;11.45;;
31660;SDS011;18267;52.234;7.444;2022-08-16T04:37:56;17.42;;;10.55;;
31660;SDS011;18267;52.234;7.444;2022-08-16T04:40:22;16.02;;;11.20;;
31660;SDS011;18267;52.234;7.444;2022-08-16T04:42:49;19.90;;;11.25;;
31660;SDS011;18267;52.234;7.444;2022-08-16T04:45:15;12.75;;;11.18;;
31660;SDS011;18267;52.234;7.444;2022-08-16T04:47:41;13.25;;;10.48;;
31660;SDS011;18267;52.234;7.444;2022-08-16T04:50:09;15.48;;;10.98;;
31660;SDS011;18267;52.234;7.444;2022-08-16T04:52:35;15.40;;;10.50;;
31660;SDS011;18267;52.234;7.444;2022-08-16T04:55:12;16.65;;;10.73;;
31660;SDS011;18267;52.234;7.444;2022-08-16T04:57:39;15.02;;;10.48;;
31660;SDS011;18267;52.234;7.444;2022-08-16T05:00:07;13.60;;;11.00;;
31660;SDS011;18267;52.234;7.444;2022-08-16T05:02:45;14.70;;;10.63;;
31660;SDS011;18267;52.234;7.444;2022-08-16T05:05:12;16.50;;;10.35;;
31660;SDS011;18267;52.234;7.444;2022-08-16T05:07:38;14.20;;;11.15;;
31660;SDS011;18267;52.234;7.444;2022-08-16T05:10:05;12.85;;;10.30;;
31660;SDS011;18267;52.234;7.444;2022-08-16T05:12:32;16.25;;;11.82;;
31660;SDS011;18267;52.234;7.444;2022-08-16T05:14:58;14.98;;;10.27;;
31660;SDS011;18267;52.234;7.444;2022-08-16T05:17:24;20.05;;;11.80;;
31660;SDS011;18267;52.234;7.444;2022-08-16T05:19:50;15.60;;;10.48;;
31660;SDS011;18267;52.234;7.444;2022-08-16T05:22:16;22.10;;;11.52;;
31660;SDS011;18267;52.234;7.444;2022-08-16T05:24:41;14.25;;;10.35;;
31660;SDS011;18267;52.234;7.444;2022-08-16T05:27:07;19.13;;;11.27;;
31660;SDS011;18267;52.234;7.444;2022-08-16T05:29:34;16.15;;;11.32;;
31660;SDS011;18267;52.234;7.444;2022-08-16T05:32:00;18.08;;;11.00;;
31660;SDS011;18267;52.234;7.444;2022-08-16T05:34:27;15.82;;;10.35;;
31660;SDS011;18267;52.234;7.444;2022-08-16T05:36:52;14.43;;;10.90;;
31660;SDS011;18267;52.234;7.444;2022-08-16T05:39:21;14.75;;;10.45;;
31660;SDS011;18267;52.234;7.444;2022-08-16T05:41:48;16.35;;;11.25;;
31660;SDS011;18267;52.234;7.444;2022-08-16T05:44:15;13.70;;;10.80;;
31660;SDS011;18267;52.234;7.444;2022-08-16T05:46:42;12.40;;;9.95;;
31660;SDS011;18267;52.234;7.444;2022-08-16T05:49:09;12.98;;;10.25;;
31660;SDS011;18267;52.234;7.444;2022-08-16T05:51:40;15.95;;;10.40;;
31660;SDS011;18267;52.234;7.444;2022-08-16T05:54:07;14.63;;;10.85;;
31660;SDS011;18267;52.234;7.444;2022-08-16T05:56:33;17.98;;;11.27;;
31660;SDS011;18267;52.234;7.444;2022-08-16T05:58:58;15.27;;;10.52;;
31660;SDS011;18267;52.234;7.444;2022-08-16T06:01:24;19.67;;;11.20;;
31660;SDS011;18267;52.234;7.444;2022-08-16T06:03:49;14.32;;;10.18;;
31660;SDS011;18267;52.234;7.444;2022-08-16T06:06:15;14.63;;;10.82;;
31660;SDS011;18267;52.234;7.444;2022-08-16T06:08:41;14.40;;;10.75;;
31660;SDS011;18267;52.234;7.444;2022-08-16T06:11:06;15.35;;;11.38;;
31660;SDS011;18267;52.234;7.444;2022-08-16T06:13:33;13.95;;;10.30;;
31660;SDS011;18267;52.234;7.444;2022-08-16T06:16:01;15.63;;;10.85;;
31660;SDS011;18267;52.234;7.444;2022-08-16T06:18:28;14.25;;;10.68;;
31660;SDS011;18267;52.234;7.444;2022-08-16T06:20:53;18.10;;;11.75;;
31660;SDS011;18267;52.234;7.444;2022-08-16T06:23:19;13.93;;;11.25;;
31660;SDS011;18267;52.234;7.444;2022-08-16T06:25:44;18.45;;;11.75;;
31660;SDS011;18267;52.234;7.444;2022-08-16T06:28:10;13.43;;;11.23;;
31660;SDS011;18267;52.234;7.444;2022-08-16T06:30:38;15.63;;;10.65;;
31660;SDS011;18267;52.234;7.444;2022-08-16T06:33:04;19.33;;;11.40;;
31660;SDS011;18267;52.234;7.444;2022-08-16T06:35:30;17.15;;;10.85;;
31660;SDS011;18267;52.234;7.444;2022-08-16T06:37:55;22.27;;;11.15;;
31660;SDS011;18267;52.234;7.444;2022-08-16T06:40:21;17.40;;;10.30;;
31660;SDS011;18267;52.234;7.444;2022-08-16T06:42:49;15.30;;;9.10;;
31660;SDS011;18267;52.234;7.444;2022-08-16T06:45:16;19.05;;;9.73;;
31660;SDS011;18267;52.234;7.444;2022-08-16T06:47:43;16.95;;;9.45;;
31660;SDS011;18267;52.234;7.444;2022-08-16T06:50:09;12.35;;;8.32;;
31660;SDS011;18267;52.234;7.444;2022-08-16T06:52:35;13.98;;;7.90;;
31660;SDS011;18267;52.234;7.444;2022-08-16T06:55:02;7.68;;;6.75;;
31660;SDS011;18267;52.234;7.444;2022-08-16T06:57:29;11.43;;;7.53;;
31660;SDS011;18267;52.234;7.444;2022-08-16T06:59:55;11.80;;;7.20;;
31660;SDS011;18267;52.234;7.444;2022-08-16T07:02:20;13.95;;;6.70;;
31660;SDS011;18267;52.234;7.444;2022-08-16T07:04:46;9.13;;;6.57;;
31660;SDS011;18267;52.234;7.444;2022-08-16T07:07:11;11.95;;;6.45;;
31660;SDS011;18267;52.234;7.444;2022-08-16T07:09:37;9.57;;;6.43;;
31660;SDS011;18267;52.234;7.444;2022-08-16T07:12:03;10.82;;;6.50;;
31660;SDS011;18267;52.234;7.444;2022-08-16T07:14:29;6.82;;;5.45;;
31660;SDS011;18267;52.234;7.444;2022-08-16T07:16:55;11.57;;;5.93;;
31660;SDS011;18267;52.234;7.444;2022-08-16T07:19:21;12.00;;;6.75;;
31660;SDS011;18267;52.234;7.444;2022-08-16T07:21:47;10.07;;;5.60;;
31660;SDS011;18267;52.234;7.444;2022-08-16T07:24:13;9.13;;;6.43;;
31660;SDS011;18267;52.234;7.444;2022-08-16T07:26:41;10.15;;;6.57;;
31660;SDS011;18267;52.234;7.444;2022-08-16T07:29:06;9.50;;;5.22;;
31660;SDS011;18267;52.234;7.444;2022-08-16T07:31:32;7.85;;;6.03;;
31660;SDS011;18267;52.234;7.444;2022-08-16T07:33:58;9.60;;;6.60;;
31660;SDS011;18267;52.234;7.444;2022-08-16T07:36:24;11.07;;;7.13;;
31660;SDS011;18267;52.234;7.444;2022-08-16T07:38:50;9.20;;;6.18;;
31660;SDS011;18267;52.234;7.444;2022-08-16T07:41:16;9.20;;;6.53;;
31660;SDS011;18267;52.234;7.444;2022-08-16T07:43:42;8.32;;;6.05;;
31660;SDS011;18267;52.234;7.444;2022-08-16T07:46:07;7.53;;;5.78;;
31660;SDS011;18267;52.234;7.444;2022-08-16T07:48:33;9.93;;;4.85;;
31660;SDS011;18267;52.234;7.444;2022-08-16T07:50:59;6.15;;;5.63;;
31660;SDS011;18267;52.234;7.444;2022-08-16T07:53:28;9.57;;;5.50;;
31660;SDS011;18267;52.234;7.444;2022-08-16T07:55:56;4.93;;;4.45;;
31660;SDS011;18267;52.234;7.444;2022-08-16T07:58:24;10.05;;;5.60;;
31660;SDS011;18267;52.234;7.444;2022-08-16T08:00:50;10.63;;;5.13;;
31660;SDS011;18267;52.234;7.444;2022-08-16T08:03:15;5.32;;;4.43;;
31660;SDS011;18267;52.234;7.444;2022-08-16T08:05:41;8.95;;;5.47;;
31660;SDS011;18267;52.234;7.444;2022-08-16T08:08:06;9.18;;;4.60;;
31660;SDS011;18267;52.234;7.444;2022-08-16T08:10:32;5.20;;;4.80;;
31660;SDS011;18267;52.234;7.444;2022-08-16T08:12:57;5.93;;;5.05;;
31660;SDS011;18267;52.234;7.444;2022-08-16T08:15:23;5.75;;;4.90;;
31660;SDS011;18267;52.234;7.444;2022-08-16T08:17:49;7.47;;;4.63;;
31660;SDS011;18267;52.234;7.444;2022-08-16T08:20:16;8.65;;;5.45;;
31660;SDS011;18267;52.234;7.444;2022-08-16T08:22:43;8.85;;;5.22;;
31660;SDS011;18267;52.234;7.444;2022-08-16T08:25:11;6.40;;;5.07;;
31660;SDS011;18267;52.234;7.444;2022-08-16T08:27:36;7.20;;;5.38;;
31660;SDS011;18267;52.234;7.444;2022-08-16T08:30:03;10.18;;;5.45;;
31660;SDS011;18267;52.234;7.444;2022-08-16T08:32:29;4.78;;;4.38;;
31660;SDS011;18267;52.234;7.444;2022-08-16T08:34:55;7.25;;;5.05;;
31660;SDS011;18267;52.234;7.444;2022-08-16T08:37:23;8.55;;;4.78;;
31660;SDS011;18267;52.234;7.444;2022-08-16T08:39:49;7.03;;;4.38;;
31660;SDS011;18267;52.234;7.444;2022-08-16T08:42:15;8.05;;;4.50;;
31660;SDS011;18267;52.234;7.444;2022-08-16T08:44:40;12.07;;;4.45;;
31660;SDS011;18267;52.234;7.444;2022-08-16T08:47:06;5.55;;;4.47;;
31660;SDS011;18267;52.234;7.444;2022-08-16T08:49:32;5.57;;;4.50;;
31660;SDS011;18267;52.234;7.444;2022-08-16T08:51:59;11.57;;;4.72;;
31660;SDS011;18267;52.234;7.444;2022-08-16T08:54:24;6.05;;;3.95;;
31660;SDS011;18267;52.234;7.444;2022-08-16T08:56:51;5.65;;;4.72;;
31660;SDS011;18267;52.234;7.444;2022-08-16T08:59:17;6.63;;;4.68;;
31660;SDS011;18267;52.234;7.444;2022-08-16T09:01:43;5.95;;;4.47;;
31660;SDS011;18267;52.234;7.444;2022-08-16T09:04:10;5.50;;;4.00;;
31660;SDS011;18267;52.234;7.444;2022-08-16T09:06:36;7.78;;;4.40;;
31660;SDS011;18267;52.234;7.444;2022-08-16T09:09:02;4.50;;;3.83;;
31660;SDS011;18267;52.234;7.444;2022-08-16T09:11:29;8.57;;;3.97;;
31660;SDS011;18267;52.234;7.444;2022-08-16T09:13:54;5.18;;;4.22;;
31660;SDS011;18267;52.234;7.444;2022-08-16T09:16:20;11.48;;;4.30;;
31660;SDS011;18267;52.234;7.444;2022-08-16T09:18:45;8.55;;;4.30;;
31660;SDS011;18267;52.234;7.444;2022-08-16T09:21:11;5.78;;;4.40;;
31660;SDS011;18267;52.234;7.444;2022-08-16T09:23:37;7.05;;;4.57;;
31660;SDS011;18267;52.234;7.444;2022-08-16T09:26:03;9.45;;;4.80;;
31660;SDS011;18267;52.234;7.444;2022-08-16T09:28:31;5.13;;;4.43;;
31660;SDS011;18267;52.234;7.444;2022-08-16T09:30:57;6.55;;;4.45;;
31660;SDS011;18267;52.234;7.444;2022-08-16T09:33:23;5.30;;;4.20;;
31660;SDS011;18267;52.234;7.444;2022-08-16T09:35:49;11.10;;;4.47;;
31660;SDS011;18267;52.234;7.444;2022-08-16T09:38:15;5.10;;;4.13;;
31660;SDS011;18267;52.234;7.444;2022-08-16T09:40:41;5.78;;;4.20;;
31660;SDS011;18267;52.234;7.444;2022-08-16T09:43:09;5.38;;;3.95;;
31660;SDS011;18267;52.234;7.444;2022-08-16T09:45:36;6.00;;;3.80;;
31660;SDS011;18267;52.234;7.444;2022-08-16T09:48:05;9.68;;;4.07;;
31660;SDS011;18267;52.234;7.444;2022-08-16T09:50:31;4.82;;;4.32;;
31660;SDS011;18267;52.234;7.444;2022-08-16T09:52:59;6.55;;;4.30;;
31660;SDS011;18267;52.234;7.444;2022-08-16T09:55:24;7.45;;;3.67;;
31660;SDS011;18267;52.234;7.444;2022-08-16T09:57:50;5.82;;;3.67;;
31660;SDS011;18267;52.234;7.444;2022-08-16T10:00:15;7.85;;;4.18;;
31660;SDS011;18267;52.234;7.444;2022-08-16T10:02:41;5.38;;;3.80;;
31660;SDS011;18267;52.234;7.444;2022-08-16T10:05:08;13.30;;;4.45;;
31660;SDS011;18267;52.234;7.444;2022-08-16T10:07:34;9.40;;;4.38;;
31660;SDS011;18267;52.234;7.444;2022-08-16T10:09:59;4.55;;;3.78;;
31660;SDS011;18267;52.234;7.444;2022-08-16T10:12:25;6.53;;;4.18;;
31660;SDS011;18267;52.234;7.444;2022-08-16T10:15:12;4.15;;;3.28;;
31660;SDS011;18267;52.234;7.444;2022-08-16T10:17:40;5.53;;;3.38;;
31660;SDS011;18267;52.234;7.444;2022-08-16T10:20:06;4.53;;;3.38;;
31660;SDS011;18267;52.234;7.444;2022-08-16T10:22:35;6.43;;;3.88;;
31660;SDS011;18267;52.234;7.444;2022-08-16T10:25:02;8.30;;;3.47;;
31660;SDS011;18267;52.234;7.444;2022-08-16T10:27:31;4.25;;;3.72;;
31660;SDS011;18267;52.234;7.444;2022-08-16T10:29:59;10.07;;;3.63;;
31660;SDS011;18267;52.234;7.444;2022-08-16T10:32:25;5.95;;;3.53;;
31660;SDS011;18267;52.234;7.444;2022-08-16T10:34:51;5.15;;;3.30;;
31660;SDS011;18267;52.234;7.444;2022-08-16T10:37:17;3.92;;;3.10;;
31660;SDS011;18267;52.234;7.444;2022-08-16T10:39:42;3.85;;;3.45;;
31660;SDS011;18267;52.234;7.444;2022-08-16T10:42:09;7.47;;;4.15;;
31660;SDS011;18267;52.234;7.444;2022-08-16T10:44:35;5.70;;;3.20;;
31660;SDS011;18267;52.234;7.444;2022-08-16T10:47:01;4.97;;;3.58;;
31660;SDS011;18267;52.234;7.444;2022-08-16T10:49:27;3.70;;;3.15;;
31660;SDS011;18267;52.234;7.444;2022-08-16T10:51:52;10.13;;;3.60;;
31660;SDS011;18267;52.234;7.444;2022-08-16T10:54:19;4.28;;;3.47;;
31660;SDS011;18267;52.234;7.444;2022-08-16T10:56:46;3.40;;;2.97;;
31660;SDS011;18267;52.234;7.444;2022-08-16T10:59:12;5.07;;;3.60;;
31660;SDS011;18267;52.234;7.444;2022-08-16T11:01:37;5.20;;;3.55;;
31660;SDS011;18267;52.234;7.444;2022-08-16T11:04:03;3.13;;;2.80;;
31660;SDS011;18267;52.234;7.444;2022-08-16T11:06:29;4.90;;;3.00;;
31660;SDS011;18267;52.234;7.444;2022-08-16T11:08:55;6.18;;;3.40;;
31660;SDS011;18267;52.234;7.444;2022-08-16T11:11:21;3.17;;;2.83;;
31660;SDS011;18267;52.234;7.444;2022-08-16T11:13:47;10.40;;;4.05;;
31660;SDS011;18267;52.234;7.444;2022-08-16T11:16:14;4.43;;;3.15;;
31660;SDS011;18267;52.234;7.444;2022-08-16T11:18:39;5.60;;;3.42;;
31660;SDS011;18267;52.234;7.444;2022-08-16T11:21:05;3.85;;;3.20;;
31660;SDS011;18267;52.234;7.444;2022-08-16T11:23:31;9.77;;;3.33;;
31660;SDS011;18267;52.234;7.444;2022-08-16T11:25:57;6.35;;;3.30;;
31660;SDS011;18267;52.234;7.444;2022-08-16T11:28:23;3.47;;;3.25;;
31660;SDS011;18267;52.234;7.444;2022-08-16T11:30:49;4.43;;;3.92;;
31660;SDS011;18267;52.234;7.444;2022-08-16T11:33:15;5.22;;;3.85;;
31660;SDS011;18267;52.234;7.444;2022-08-16T11:35:40;4.10;;;3.58;;
31660;SDS011;18267;52.234;7.444;2022-08-16T11:38:08;5.38;;;3.40;;
31660;SDS011;18267;52.234;7.444;2022-08-16T11:40:57;6.00;;;3.05;;
31660;SDS011;18267;52.234;7.444;2022-08-16T11:43:25;3.33;;;3.03;;
31660;SDS011;18267;52.234;7.444;2022-08-16T11:45:57;5.65;;;3.55;;
31660;SDS011;18267;52.234;7.444;2022-08-16T11:48:25;3.33;;;3.10;;
31660;SDS011;18267;52.234;7.444;2022-08-16T11:50:53;6.28;;;3.38;;
31660;SDS011;18267;52.234;7.444;2022-08-16T11:53:20;5.03;;;3.35;;
31660;SDS011;18267;52.234;7.444;2022-08-16T11:55:46;4.32;;;3.55;;
31660;SDS011;18267;52.234;7.444;2022-08-16T11:58:12;3.92;;;3.40;;
31660;SDS011;18267;52.234;7.444;2022-08-16T12:00:41;5.60;;;3.40;;
31660;SDS011;18267;52.234;7.444;2022-08-16T12:03:08;5.22;;;2.50;;
31660;SDS011;18267;52.234;7.444;2022-08-16T12:05:34;7.00;;;3.30;;
31660;SDS011;18267;52.234;7.444;2022-08-16T12:08:01;7.65;;;3.53;;
31660;SDS011;18267;52.234;7.444;2022-08-16T12:10:28;6.68;;;3.38;;
31660;SDS011;18267;52.234;7.444;2022-08-16T12:12:54;6.55;;;3.58;;
31660;SDS011;18267;52.234;7.444;2022-08-16T12:15:20;4.78;;;3.40;;
31660;SDS011;18267;52.234;7.444;2022-08-16T12:17:47;3.10;;;2.85;;
31660;SDS011;18267;52.234;7.444;2022-08-16T12:20:14;7.50;;;3.70;;
31660;SDS011;18267;52.234;7.444;2022-08-16T12:22:42;5.15;;;3.55;;
31660;SDS011;18267;52.234;7.444;2022-08-16T12:25:10;4.57;;;3.45;;
31660;SDS011;18267;52.234;7.444;2022-08-16T12:27:38;4.25;;;3.60;;
31660;SDS011;18267;52.234;7.444;2022-08-16T12:30:05;7.82;;;3.10;;
31660;SDS011;18267;52.234;7.444;2022-08-16T12:32:32;4.72;;;3.38;;
31660;SDS011;18267;52.234;7.444;2022-08-16T12:34:58;4.10;;;3.80;;
31660;SDS011;18267;52.234;7.444;2022-08-16T12:37:24;6.90;;;3.78;;
31660;SDS011;18267;52.234;7.444;2022-08-16T12:39:51;4.38;;;3.67;;
31660;SDS011;18267;52.234;7.444;2022-08-16T12:42:19;3.70;;;3.17;;
31660;SDS011;18267;52.234;7.444;2022-08-16T12:44:46;3.40;;;3.10;;
31660;SDS011;18267;52.234;7.444;2022-08-16T12:47:13;3.13;;;2.92;;
31660;SDS011;18267;52.234;7.444;2022-08-16T12:49:57;3.95;;;3.28;;
31660;SDS011;18267;52.234;7.444;2022-08-16T12:52:22;4.30;;;3.17;;
31660;SDS011;18267;52.234;7.444;2022-08-16T12:54:48;6.03;;;3.45;;
31660;SDS011;18267;52.234;7.444;2022-08-16T12:57:13;4.45;;;3.30;;
31660;SDS011;18267;52.234;7.444;2022-08-16T12:59:39;3.35;;;3.05;;
31660;SDS011;18267;52.234;7.444;2022-08-16T13:02:06;5.85;;;3.08;;
31660;SDS011;18267;52.234;7.444;2022-08-16T13:04:32;5.40;;;3.42;;
31660;SDS011;18267;52.234;7.444;2022-08-16T13:06:59;7.05;;;3.28;;
31660;SDS011;18267;52.234;7.444;2022-08-16T13:09:26;5.93;;;2.85;;
31660;SDS011;18267;52.234;7.444;2022-08-16T13:11:56;3.25;;;3.03;;
31660;SDS011;18267;52.234;7.444;2022-08-16T13:17:02;4.80;;;2.60;;
31660;SDS011;18267;52.234;7.444;2022-08-16T13:19:30;4.38;;;3.08;;
31660;SDS011;18267;52.234;7.444;2022-08-16T13:21:56;5.88;;;2.70;;
31660;SDS011;18267;52.234;7.444;2022-08-16T13:24:22;6.50;;;2.35;;
31660;SDS011;18267;52.234;7.444;2022-08-16T13:26:47;3.03;;;2.72;;
31660;SDS011;18267;52.234;7.444;2022-08-16T13:29:13;2.97;;;2.60;;
31660;SDS011;18267;52.234;7.444;2022-08-16T13:31:38;5.40;;;2.80;;
31660;SDS011;18267;52.234;7.444;2022-08-16T13:34:04;4.20;;;3.03;;
31660;SDS011;18267;52.234;7.444;2022-08-16T13:36:30;5.25;;;2.80;;
31660;SDS011;18267;52.234;7.444;2022-08-16T13:38:56;5.85;;;3.22;;
31660;SDS011;18267;52.234;7.444;2022-08-16T13:41:22;3.65;;;3.35;;
31660;SDS011;18267;52.234;7.444;2022-08-16T13:43:47;3.20;;;2.90;;
31660;SDS011;18267;52.234;7.444;2022-08-16T13:46:13;5.80;;;3.30;;
31660;SDS011;18267;52.234;7.444;2022-08-16T13:48:38;6.13;;;3.00;;
31660;SDS011;18267;52.234;7.444;2022-08-16T13:51:04;4.22;;;3.17;;
31660;SDS011;18267;52.234;7.444;2022-08-16T13:53:31;3.45;;;3.03;;
31660;SDS011;18267;52.234;7.444;2022-08-16T13:55:57;3.95;;;3.00;;
31660;SDS011;18267;52.234;7.444;2022-08-16T13:58:23;5.60;;;3.42;;
31660;SDS011;18267;52.234;7.444;2022-08-16T14:00:49;2.80;;;2.60;;
31660;SDS011;18267;52.234;7.444;2022-08-16T14:03:15;4.15;;;3.40;;
31660;SDS011;18267;52.234;7.444;2022-08-16T14:05:41;4.72;;;3.92;;
31660;SDS011;18267;52.234;7.444;2022-08-16T14:08:07;5.70;;;3.15;;
31660;SDS011;18267;52.234;7.444;2022-08-16T14:10:32;3.20;;;2.90;;
31660;SDS011;18267;52.234;7.444;2022-08-16T14:12:58;4.28;;;3.08;;
31660;SDS011;18267;52.234;7.444;2022-08-16T14:15:24;3.25;;;2.95;;
31660;SDS011;18267;52.234;7.444;2022-08-16T14:17:50;4.65;;;2.85;;
31660;SDS011;18267;52.234;7.444;2022-08-16T14:20:16;5.63;;;3.40;;
31660;SDS011;18267;52.234;7.444;2022-08-16T14:22:41;5.88;;;2.75;;
31660;SDS011;18267;52.234;7.444;2022-08-16T14:25:12;2.95;;;2.75;;
31660;SDS011;18267;52.234;7.444;2022-08-16T14:27:40;3.45;;;2.95;;
31660;SDS011;18267;52.234;7.444;2022-08-16T14:30:06;4.97;;;2.75;;
31660;SDS011;18267;52.234;7.444;2022-08-16T14:32:33;3.03;;;2.47;;
31660;SDS011;18267;52.234;7.444;2022-08-16T14:35:03;3.05;;;2.67;;
31660;SDS011;18267;52.234;7.444;2022-08-16T14:37:32;2.65;;;2.17;;
31660;SDS011;18267;52.234;7.444;2022-08-16T14:39:58;5.40;;;2.38;;
31660;SDS011;18267;52.234;7.444;2022-08-16T14:42:24;3.15;;;2.20;;
31660;SDS011;18267;52.234;7.444;2022-08-16T14:44:51;4.65;;;2.10;;